sensor_id;sensor_type;location;lat;lon;timestamp;P1;durP1;ratioP1;P2;durP2;ratioP2
51718;SDS011;37795;53.236;5.704;2024-01-11T00:01:09;3.38;;;1.40;;
51718;SDS011;37795;53.236;5.704;2024-01-11T00:03:35;2.55;;;1.52;;
51718;SDS011;37795;53.236;5.704;2024-01-11T00:06:01;2.30;;;1.43;;
51718;SDS011;37795;53.236;5.704;2024-01-11T00:08:26;3.10;;;1.70;;
51718;SDS011;37795;53.236;5.704;2024-01-11T00:10:52;3.65;;;1.60;;
51718;SDS011;37795;53.236;5.704;2024-01-11T00:13:18;3.17;;;1.50;;
51718;SDS011;37795;53.236;5.704;2024-01-11T00:15:43;3.60;;;1.50;;
51718;SDS011;37795;53.236;5.704;2024-01-11T00:18:09;4.50;;;1.50;;
51718;SDS011;37795;53.236;5.704;2024-01-11T00:20:35;3.20;;;1.52;;
51718;SDS011;37795;53.236;5.704;2024-01-11T00:23:01;3.92;;;1.90;;
51718;SDS011;37795;53.236;5.704;2024-01-11T00:25:26;2.37;;;1.47;;
51718;SDS011;37795;53.236;5.704;2024-01-11T00:27:52;3.33;;;1.23;;
51718;SDS011;37795;53.236;5.704;2024-01-11T00:30:18;2.92;;;1.40;;
51718;SDS011;37795;53.236;5.704;2024-01-11T00:32:43;6.53;;;1.80;;
51718;SDS011;37795;53.236;5.704;2024-01-11T00:35:09;2.83;;;1.43;;
51718;SDS011;37795;53.236;5.704;2024-01-11T00:37:35;3.22;;;1.20;;
51718;SDS011;37795;53.236;5.704;2024-01-11T00:40:00;2.65;;;1.50;;
51718;SDS011;37795;53.236;5.704;2024-01-11T00:42:26;3.53;;;1.70;;
51718;SDS011;37795;53.236;5.704;2024-01-11T00:44:52;3.40;;;1.73;;
51718;SDS011;37795;53.236;5.704;2024-01-11T00:47:18;4.40;;;1.50;;
51718;SDS011;37795;53.236;5.704;2024-01-11T00:49:43;3.15;;;1.63;;
51718;SDS011;37795;53.236;5.704;2024-01-11T00:52:09;3.58;;;1.40;;
51718;SDS011;37795;53.236;5.704;2024-01-11T00:54:35;2.00;;;1.30;;
51718;SDS011;37795;53.236;5.704;2024-01-11T00:57:01;3.13;;;1.42;;
51718;SDS011;37795;53.236;5.704;2024-01-11T00:59:26;3.23;;;1.43;;
51718;SDS011;37795;53.236;5.704;2024-01-11T01:01:52;2.73;;;1.37;;
51718;SDS011;37795;53.236;5.704;2024-01-11T01:04:18;2.80;;;1.30;;
51718;SDS011;37795;53.236;5.704;2024-01-11T01:06:43;2.28;;;1.30;;
51718;SDS011;37795;53.236;5.704;2024-01-11T01:09:10;2.28;;;1.35;;
51718;SDS011;37795;53.236;5.704;2024-01-11T01:11:36;2.43;;;1.40;;
51718;SDS011;37795;53.236;5.704;2024-01-11T01:14:02;2.37;;;1.37;;
51718;SDS011;37795;53.236;5.704;2024-01-11T01:16:28;2.08;;;1.10;;
51718;SDS011;37795;53.236;5.704;2024-01-11T01:18:53;3.25;;;1.42;;
51718;SDS011;37795;53.236;5.704;2024-01-11T01:21:19;2.33;;;1.20;;
51718;SDS011;37795;53.236;5.704;2024-01-11T01:23:45;1.70;;;1.10;;
51718;SDS011;37795;53.236;5.704;2024-01-11T01:26:10;1.90;;;1.30;;
51718;SDS011;37795;53.236;5.704;2024-01-11T01:28:36;2.53;;;1.23;;
51718;SDS011;37795;53.236;5.704;2024-01-11T01:31:02;2.95;;;1.50;;
51718;SDS011;37795;53.236;5.704;2024-01-11T01:33:27;3.33;;;1.30;;
51718;SDS011;37795;53.236;5.704;2024-01-11T01:35:53;2.23;;;1.20;;
51718;SDS011;37795;53.236;5.704;2024-01-11T01:38:19;2.75;;;1.25;;
51718;SDS011;37795;53.236;5.704;2024-01-11T01:40:44;1.60;;;1.00;;
51718;SDS011;37795;53.236;5.704;2024-01-11T01:43:10;2.90;;;1.30;;
51718;SDS011;37795;53.236;5.704;2024-01-11T01:45:38;1.77;;;1.17;;
51718;SDS011;37795;53.236;5.704;2024-01-11T01:48:03;1.88;;;1.13;;
51718;SDS011;37795;53.236;5.704;2024-01-11T01:50:29;2.30;;;1.33;;
51718;SDS011;37795;53.236;5.704;2024-01-11T01:52:56;4.33;;;1.60;;
51718;SDS011;37795;53.236;5.704;2024-01-11T01:55:22;2.42;;;1.50;;
51718;SDS011;37795;53.236;5.704;2024-01-11T01:57:48;1.95;;;1.48;;
51718;SDS011;37795;53.236;5.704;2024-01-11T02:00:16;2.40;;;1.20;;
51718;SDS011;37795;53.236;5.704;2024-01-11T02:02:44;2.10;;;1.37;;
51718;SDS011;37795;53.236;5.704;2024-01-11T02:05:14;1.75;;;1.10;;
51718;SDS011;37795;53.236;5.704;2024-01-11T02:07:41;2.28;;;1.10;;
51718;SDS011;37795;53.236;5.704;2024-01-11T02:10:07;2.10;;;1.20;;
51718;SDS011;37795;53.236;5.704;2024-01-11T02:12:36;1.98;;;1.17;;
51718;SDS011;37795;53.236;5.704;2024-01-11T02:15:05;1.95;;;1.20;;
51718;SDS011;37795;53.236;5.704;2024-01-11T02:17:31;1.90;;;1.30;;
51718;SDS011;37795;53.236;5.704;2024-01-11T02:19:57;2.03;;;1.33;;
51718;SDS011;37795;53.236;5.704;2024-01-11T02:22:28;2.20;;;1.35;;
51718;SDS011;37795;53.236;5.704;2024-01-11T02:24:57;2.03;;;1.20;;
51718;SDS011;37795;53.236;5.704;2024-01-11T02:27:23;2.27;;;1.43;;
51718;SDS011;37795;53.236;5.704;2024-01-11T02:29:49;2.43;;;1.40;;
51718;SDS011;37795;53.236;5.704;2024-01-11T02:32:15;2.17;;;1.33;;
51718;SDS011;37795;53.236;5.704;2024-01-11T02:34:40;1.83;;;1.30;;
51718;SDS011;37795;53.236;5.704;2024-01-11T02:37:07;1.80;;;1.23;;
51718;SDS011;37795;53.236;5.704;2024-01-11T02:39:33;2.77;;;1.47;;
51718;SDS011;37795;53.236;5.704;2024-01-11T02:41:59;2.27;;;1.37;;
51718;SDS011;37795;53.236;5.704;2024-01-11T02:49:16;2.30;;;1.08;;
51718;SDS011;37795;53.236;5.704;2024-01-11T02:51:42;2.00;;;1.15;;
51718;SDS011;37795;53.236;5.704;2024-01-11T02:54:08;1.88;;;1.27;;
51718;SDS011;37795;53.236;5.704;2024-01-11T02:56:34;1.85;;;1.23;;
51718;SDS011;37795;53.236;5.704;2024-01-11T05:42:04;3.65;;;1.08;;
51718;SDS011;37795;53.236;5.704;2024-01-11T05:44:31;1.98;;;1.33;;
51718;SDS011;37795;53.236;5.704;2024-01-11T05:46:57;1.92;;;1.55;;
51718;SDS011;37795;53.236;5.704;2024-01-11T05:49:23;1.93;;;1.50;;
51718;SDS011;37795;53.236;5.704;2024-01-11T05:51:48;2.00;;;1.60;;
51718;SDS011;37795;53.236;5.704;2024-01-11T05:54:14;2.40;;;1.60;;
51718;SDS011;37795;53.236;5.704;2024-01-11T05:56:40;2.55;;;1.60;;
51718;SDS011;37795;53.236;5.704;2024-01-11T05:59:05;1.80;;;1.40;;
51718;SDS011;37795;53.236;5.704;2024-01-11T06:01:31;1.88;;;1.50;;
51718;SDS011;37795;53.236;5.704;2024-01-11T06:03:57;2.10;;;1.40;;
51718;SDS011;37795;53.236;5.704;2024-01-11T06:06:22;1.80;;;1.30;;
51718;SDS011;37795;53.236;5.704;2024-01-11T06:08:48;1.63;;;1.20;;
51718;SDS011;37795;53.236;5.704;2024-01-11T06:11:14;1.90;;;1.23;;
51718;SDS011;37795;53.236;5.704;2024-01-11T06:13:40;1.70;;;1.20;;
51718;SDS011;37795;53.236;5.704;2024-01-11T06:16:06;1.77;;;1.35;;
51718;SDS011;37795;53.236;5.704;2024-01-11T06:18:32;1.70;;;1.42;;
51718;SDS011;37795;53.236;5.704;2024-01-11T06:20:58;1.83;;;1.40;;
51718;SDS011;37795;53.236;5.704;2024-01-11T06:23:24;1.73;;;1.17;;
51718;SDS011;37795;53.236;5.704;2024-01-11T06:25:50;1.90;;;1.48;;
51718;SDS011;37795;53.236;5.704;2024-01-11T06:28:16;1.50;;;1.23;;
51718;SDS011;37795;53.236;5.704;2024-01-11T06:30:41;1.50;;;1.10;;
51718;SDS011;37795;53.236;5.704;2024-01-11T06:33:08;2.35;;;1.38;;
51718;SDS011;37795;53.236;5.704;2024-01-11T06:35:34;1.38;;;1.10;;
51718;SDS011;37795;53.236;5.704;2024-01-11T06:38:00;1.60;;;1.17;;
51718;SDS011;37795;53.236;5.704;2024-01-11T06:40:26;2.40;;;1.40;;
51718;SDS011;37795;53.236;5.704;2024-01-11T06:42:51;1.50;;;1.10;;
51718;SDS011;37795;53.236;5.704;2024-01-11T06:52:09;1.35;;;0.80;;
51718;SDS011;37795;53.236;5.704;2024-01-11T06:54:34;1.65;;;1.00;;
51718;SDS011;37795;53.236;5.704;2024-01-11T06:57:00;1.30;;;1.00;;
51718;SDS011;37795;53.236;5.704;2024-01-11T06:59:26;2.38;;;1.02;;
51718;SDS011;37795;53.236;5.704;2024-01-11T07:01:51;1.77;;;1.00;;
51718;SDS011;37795;53.236;5.704;2024-01-11T07:04:17;1.42;;;0.80;;
51718;SDS011;37795;53.236;5.704;2024-01-11T07:06:43;1.00;;;0.80;;
51718;SDS011;37795;53.236;5.704;2024-01-11T07:09:08;1.40;;;0.90;;
51718;SDS011;37795;53.236;5.704;2024-01-11T07:11:36;1.55;;;0.80;;
51718;SDS011;37795;53.236;5.704;2024-01-11T07:14:01;1.73;;;1.08;;
51718;SDS011;37795;53.236;5.704;2024-01-11T07:16:29;1.40;;;0.93;;
51718;SDS011;37795;53.236;5.704;2024-01-11T07:18:56;1.70;;;0.95;;
51718;SDS011;37795;53.236;5.704;2024-01-11T07:21:22;1.30;;;0.93;;
51718;SDS011;37795;53.236;5.704;2024-01-11T07:23:55;2.08;;;1.08;;
51718;SDS011;37795;53.236;5.704;2024-01-11T07:26:22;1.30;;;0.88;;
51718;SDS011;37795;53.236;5.704;2024-01-11T07:28:48;1.90;;;0.80;;
51718;SDS011;37795;53.236;5.704;2024-01-11T07:31:14;1.95;;;1.17;;
51718;SDS011;37795;53.236;5.704;2024-01-11T07:33:41;1.08;;;0.60;;
51718;SDS011;37795;53.236;5.704;2024-01-11T07:36:06;1.17;;;0.80;;
51718;SDS011;37795;53.236;5.704;2024-01-11T07:38:32;1.10;;;0.68;;
51718;SDS011;37795;53.236;5.704;2024-01-11T07:40:58;1.08;;;0.70;;
51718;SDS011;37795;53.236;5.704;2024-01-11T07:43:24;1.33;;;0.90;;
51718;SDS011;37795;53.236;5.704;2024-01-11T07:45:51;2.03;;;1.00;;
51718;SDS011;37795;53.236;5.704;2024-01-11T07:48:17;1.27;;;0.85;;
51718;SDS011;37795;53.236;5.704;2024-01-11T07:50:43;1.42;;;1.00;;
51718;SDS011;37795;53.236;5.704;2024-01-11T07:53:09;1.27;;;0.90;;
51718;SDS011;37795;53.236;5.704;2024-01-11T07:55:35;1.50;;;0.98;;
51718;SDS011;37795;53.236;5.704;2024-01-11T07:58:00;2.03;;;0.85;;
51718;SDS011;37795;53.236;5.704;2024-01-11T08:00:26;1.75;;;0.80;;
51718;SDS011;37795;53.236;5.704;2024-01-11T08:02:51;1.45;;;0.85;;
51718;SDS011;37795;53.236;5.704;2024-01-11T08:05:19;1.75;;;0.95;;
51718;SDS011;37795;53.236;5.704;2024-01-11T08:07:45;1.90;;;1.00;;
51718;SDS011;37795;53.236;5.704;2024-01-11T08:10:10;1.90;;;1.25;;
51718;SDS011;37795;53.236;5.704;2024-01-11T08:12:36;1.60;;;1.00;;
51718;SDS011;37795;53.236;5.704;2024-01-11T08:15:02;1.05;;;0.77;;
51718;SDS011;37795;53.236;5.704;2024-01-11T08:17:28;1.65;;;1.10;;
51718;SDS011;37795;53.236;5.704;2024-01-11T08:19:54;1.10;;;0.80;;
51718;SDS011;37795;53.236;5.704;2024-01-11T08:22:21;1.27;;;0.90;;
51718;SDS011;37795;53.236;5.704;2024-01-11T08:24:48;1.35;;;0.85;;
51718;SDS011;37795;53.236;5.704;2024-01-11T08:27:14;1.75;;;1.00;;
51718;SDS011;37795;53.236;5.704;2024-01-11T08:29:42;1.30;;;0.90;;
51718;SDS011;37795;53.236;5.704;2024-01-11T08:32:08;2.40;;;1.15;;
51718;SDS011;37795;53.236;5.704;2024-01-11T08:34:34;1.58;;;1.20;;
51718;SDS011;37795;53.236;5.704;2024-01-11T08:37:00;1.38;;;1.05;;
51718;SDS011;37795;53.236;5.704;2024-01-11T08:39:25;1.98;;;1.08;;
51718;SDS011;37795;53.236;5.704;2024-01-11T08:41:51;1.67;;;1.27;;
51718;SDS011;37795;53.236;5.704;2024-01-11T08:44:17;1.90;;;1.30;;
51718;SDS011;37795;53.236;5.704;2024-01-11T08:46:43;1.55;;;1.00;;
51718;SDS011;37795;53.236;5.704;2024-01-11T08:49:09;1.90;;;1.03;;
51718;SDS011;37795;53.236;5.704;2024-01-11T08:51:35;1.47;;;0.90;;
51718;SDS011;37795;53.236;5.704;2024-01-11T08:54:01;1.48;;;0.98;;
51718;SDS011;37795;53.236;5.704;2024-01-11T08:56:26;1.88;;;1.00;;
51718;SDS011;37795;53.236;5.704;2024-01-11T08:58:53;1.27;;;0.90;;
51718;SDS011;37795;53.236;5.704;2024-01-11T09:01:19;1.30;;;0.90;;
51718;SDS011;37795;53.236;5.704;2024-01-11T09:03:45;1.50;;;1.05;;
51718;SDS011;37795;53.236;5.704;2024-01-11T09:06:13;1.42;;;1.00;;
51718;SDS011;37795;53.236;5.704;2024-01-11T09:08:39;2.88;;;1.30;;
51718;SDS011;37795;53.236;5.704;2024-01-11T09:11:06;2.28;;;1.10;;
51718;SDS011;37795;53.236;5.704;2024-01-11T09:13:31;1.50;;;1.10;;
51718;SDS011;37795;53.236;5.704;2024-01-11T09:15:57;1.90;;;1.00;;
51718;SDS011;37795;53.236;5.704;2024-01-11T09:18:24;1.50;;;0.98;;
51718;SDS011;37795;53.236;5.704;2024-01-11T09:20:49;1.75;;;1.30;;
51718;SDS011;37795;53.236;5.704;2024-01-11T09:23:15;3.17;;;1.47;;
51718;SDS011;37795;53.236;5.704;2024-01-11T09:25:41;1.20;;;1.00;;
51718;SDS011;37795;53.236;5.704;2024-01-11T09:28:07;1.77;;;1.08;;
51718;SDS011;37795;53.236;5.704;2024-01-11T09:30:33;1.60;;;1.13;;
51718;SDS011;37795;53.236;5.704;2024-01-11T09:32:59;1.73;;;1.03;;
51718;SDS011;37795;53.236;5.704;2024-01-11T09:35:25;1.70;;;0.97;;
51718;SDS011;37795;53.236;5.704;2024-01-11T09:37:51;1.30;;;0.90;;
51718;SDS011;37795;53.236;5.704;2024-01-11T09:40:17;1.30;;;1.00;;
51718;SDS011;37795;53.236;5.704;2024-01-11T09:42:43;1.30;;;1.00;;
51718;SDS011;37795;53.236;5.704;2024-01-11T09:45:10;1.57;;;1.20;;
51718;SDS011;37795;53.236;5.704;2024-01-11T09:47:38;2.05;;;1.02;;
51718;SDS011;37795;53.236;5.704;2024-01-11T09:50:06;1.20;;;0.90;;
51718;SDS011;37795;53.236;5.704;2024-01-11T09:52:32;1.35;;;1.00;;
51718;SDS011;37795;53.236;5.704;2024-01-11T09:54:58;1.95;;;1.20;;
51718;SDS011;37795;53.236;5.704;2024-01-11T09:57:31;1.90;;;1.30;;
51718;SDS011;37795;53.236;5.704;2024-01-11T10:00:00;1.70;;;1.20;;
51718;SDS011;37795;53.236;5.704;2024-01-11T10:02:29;1.92;;;1.27;;
51718;SDS011;37795;53.236;5.704;2024-01-11T10:04:55;1.60;;;1.10;;
51718;SDS011;37795;53.236;5.704;2024-01-11T10:07:21;1.35;;;1.05;;
51718;SDS011;37795;53.236;5.704;2024-01-11T10:09:48;1.40;;;1.10;;
51718;SDS011;37795;53.236;5.704;2024-01-11T10:12:14;1.60;;;1.23;;
51718;SDS011;37795;53.236;5.704;2024-01-11T10:14:42;1.20;;;0.85;;
51718;SDS011;37795;53.236;5.704;2024-01-11T10:17:08;1.77;;;1.10;;
51718;SDS011;37795;53.236;5.704;2024-01-11T10:19:33;1.50;;;0.90;;
51718;SDS011;37795;53.236;5.704;2024-01-11T10:21:59;1.73;;;1.07;;
51718;SDS011;37795;53.236;5.704;2024-01-11T10:24:25;1.40;;;1.00;;
51718;SDS011;37795;53.236;5.704;2024-01-11T10:26:57;2.47;;;1.25;;
51718;SDS011;37795;53.236;5.704;2024-01-11T10:29:29;1.60;;;1.10;;
51718;SDS011;37795;53.236;5.704;2024-01-11T10:31:56;1.42;;;0.90;;
51718;SDS011;37795;53.236;5.704;2024-01-11T10:34:24;1.42;;;0.90;;
51718;SDS011;37795;53.236;5.704;2024-01-11T10:36:50;1.80;;;0.95;;
51718;SDS011;37795;53.236;5.704;2024-01-11T10:39:17;1.40;;;1.00;;
51718;SDS011;37795;53.236;5.704;2024-01-11T10:41:47;1.25;;;0.82;;
51718;SDS011;37795;53.236;5.704;2024-01-11T10:44:20;1.20;;;0.80;;
51718;SDS011;37795;53.236;5.704;2024-01-11T10:52:09;1.20;;;0.68;;
51718;SDS011;37795;53.236;5.704;2024-01-11T10:54:37;1.15;;;0.70;;
51718;SDS011;37795;53.236;5.704;2024-01-11T11:36:36;1.55;;;0.75;;
51718;SDS011;37795;53.236;5.704;2024-01-11T11:39:04;1.00;;;0.68;;
51718;SDS011;37795;53.236;5.704;2024-01-11T11:41:30;1.25;;;0.60;;
51718;SDS011;37795;53.236;5.704;2024-01-11T13:58:39;1.75;;;0.50;;
51718;SDS011;37795;53.236;5.704;2024-01-11T14:01:05;2.30;;;0.52;;
51718;SDS011;37795;53.236;5.704;2024-01-11T14:03:32;3.90;;;0.60;;
51718;SDS011;37795;53.236;5.704;2024-01-11T14:05:59;2.27;;;0.80;;
51718;SDS011;37795;53.236;5.704;2024-01-11T14:08:25;1.73;;;0.80;;
51718;SDS011;37795;53.236;5.704;2024-01-11T14:10:51;3.35;;;0.90;;
51718;SDS011;37795;53.236;5.704;2024-01-11T18:52:08;2.22;;;0.80;;
51718;SDS011;37795;53.236;5.704;2024-01-11T18:54:34;2.35;;;0.32;;
51718;SDS011;37795;53.236;5.704;2024-01-11T18:57:00;1.10;;;0.47;;
51718;SDS011;37795;53.236;5.704;2024-01-11T18:59:25;1.10;;;0.65;;
51718;SDS011;37795;53.236;5.704;2024-01-11T19:01:51;1.88;;;0.60;;
51718;SDS011;37795;53.236;5.704;2024-01-11T19:04:16;1.75;;;0.73;;
51718;SDS011;37795;53.236;5.704;2024-01-11T19:06:42;0.95;;;0.40;;
51718;SDS011;37795;53.236;5.704;2024-01-11T19:09:12;1.08;;;0.47;;
51718;SDS011;37795;53.236;5.704;2024-01-11T19:11:38;1.58;;;0.60;;
51718;SDS011;37795;53.236;5.704;2024-01-11T19:14:04;1.77;;;0.60;;
51718;SDS011;37795;53.236;5.704;2024-01-11T19:16:30;2.15;;;0.65;;
51718;SDS011;37795;53.236;5.704;2024-01-11T19:18:56;1.38;;;0.75;;
51718;SDS011;37795;53.236;5.704;2024-01-11T19:21:22;1.50;;;0.70;;
51718;SDS011;37795;53.236;5.704;2024-01-11T19:23:47;1.45;;;0.63;;
51718;SDS011;37795;53.236;5.704;2024-01-11T19:26:13;1.10;;;0.50;;
51718;SDS011;37795;53.236;5.704;2024-01-11T19:28:39;1.50;;;0.80;;
51718;SDS011;37795;53.236;5.704;2024-01-11T19:31:04;1.90;;;0.70;;
51718;SDS011;37795;53.236;5.704;2024-01-11T19:33:30;1.80;;;0.70;;
51718;SDS011;37795;53.236;5.704;2024-01-11T19:35:59;1.42;;;0.65;;
51718;SDS011;37795;53.236;5.704;2024-01-11T19:38:24;1.55;;;0.70;;
51718;SDS011;37795;53.236;5.704;2024-01-11T19:40:50;1.00;;;0.57;;
51718;SDS011;37795;53.236;5.704;2024-01-11T19:43:16;1.20;;;0.60;;
51718;SDS011;37795;53.236;5.704;2024-01-11T19:45:42;2.50;;;0.80;;
51718;SDS011;37795;53.236;5.704;2024-01-11T19:48:07;2.20;;;0.60;;
51718;SDS011;37795;53.236;5.704;2024-01-11T19:50:33;0.93;;;0.50;;
51718;SDS011;37795;53.236;5.704;2024-01-11T19:52:59;1.40;;;0.60;;
51718;SDS011;37795;53.236;5.704;2024-01-11T19:55:25;1.77;;;0.70;;
51718;SDS011;37795;53.236;5.704;2024-01-11T19:57:51;1.20;;;0.60;;
51718;SDS011;37795;53.236;5.704;2024-01-11T20:00:16;1.70;;;0.70;;
51718;SDS011;37795;53.236;5.704;2024-01-11T20:02:42;1.30;;;0.50;;
51718;SDS011;37795;53.236;5.704;2024-01-11T20:05:08;1.60;;;0.77;;
51718;SDS011;37795;53.236;5.704;2024-01-11T20:07:34;1.60;;;0.60;;
51718;SDS011;37795;53.236;5.704;2024-01-11T20:10:00;0.85;;;0.57;;
51718;SDS011;37795;53.236;5.704;2024-01-11T20:12:25;1.07;;;0.60;;
51718;SDS011;37795;53.236;5.704;2024-01-11T20:14:51;1.55;;;0.52;;
51718;SDS011;37795;53.236;5.704;2024-01-11T20:17:17;1.65;;;0.70;;
51718;SDS011;37795;53.236;5.704;2024-01-11T20:19:43;1.77;;;0.70;;
51718;SDS011;37795;53.236;5.704;2024-01-11T20:22:09;1.30;;;0.70;;
51718;SDS011;37795;53.236;5.704;2024-01-11T20:24:35;1.45;;;0.70;;
51718;SDS011;37795;53.236;5.704;2024-01-11T20:27:01;1.85;;;0.75;;
51718;SDS011;37795;53.236;5.704;2024-01-11T20:29:28;1.30;;;0.70;;
51718;SDS011;37795;53.236;5.704;2024-01-11T20:31:54;1.45;;;0.65;;
51718;SDS011;37795;53.236;5.704;2024-01-11T20:34:21;1.55;;;0.70;;
51718;SDS011;37795;53.236;5.704;2024-01-11T20:36:46;1.63;;;0.70;;
51718;SDS011;37795;53.236;5.704;2024-01-11T20:39:12;2.13;;;0.80;;
51718;SDS011;37795;53.236;5.704;2024-01-11T20:41:39;1.67;;;0.80;;
51718;SDS011;37795;53.236;5.704;2024-01-11T20:44:11;1.50;;;0.80;;
51718;SDS011;37795;53.236;5.704;2024-01-11T20:46:37;1.80;;;0.90;;
51718;SDS011;37795;53.236;5.704;2024-01-11T20:49:03;1.63;;;0.80;;
51718;SDS011;37795;53.236;5.704;2024-01-11T20:51:29;1.65;;;0.80;;
51718;SDS011;37795;53.236;5.704;2024-01-11T20:53:55;1.60;;;0.70;;
51718;SDS011;37795;53.236;5.704;2024-01-11T20:56:25;1.67;;;0.93;;
51718;SDS011;37795;53.236;5.704;2024-01-11T20:58:53;1.27;;;0.65;;
51718;SDS011;37795;53.236;5.704;2024-01-11T21:01:19;2.07;;;0.80;;
51718;SDS011;37795;53.236;5.704;2024-01-11T21:03:45;1.97;;;0.80;;
51718;SDS011;37795;53.236;5.704;2024-01-11T21:06:11;1.50;;;0.80;;
51718;SDS011;37795;53.236;5.704;2024-01-11T21:08:37;2.40;;;0.88;;
51718;SDS011;37795;53.236;5.704;2024-01-11T21:11:04;2.50;;;0.80;;
51718;SDS011;37795;53.236;5.704;2024-01-11T21:13:30;1.95;;;0.77;;
51718;SDS011;37795;53.236;5.704;2024-01-11T21:15:55;2.10;;;0.77;;
51718;SDS011;37795;53.236;5.704;2024-01-11T21:18:22;2.30;;;0.70;;
51718;SDS011;37795;53.236;5.704;2024-01-11T21:20:48;2.38;;;0.88;;
51718;SDS011;37795;53.236;5.704;2024-01-11T21:23:14;1.90;;;0.80;;
51718;SDS011;37795;53.236;5.704;2024-01-11T21:25:40;2.30;;;0.90;;
51718;SDS011;37795;53.236;5.704;2024-01-11T21:28:06;1.70;;;0.70;;
51718;SDS011;37795;53.236;5.704;2024-01-11T21:30:31;1.80;;;0.90;;
51718;SDS011;37795;53.236;5.704;2024-01-11T21:32:57;1.50;;;0.80;;
51718;SDS011;37795;53.236;5.704;2024-01-11T21:35:23;1.40;;;0.80;;
51718;SDS011;37795;53.236;5.704;2024-01-11T21:37:50;1.40;;;0.80;;
51718;SDS011;37795;53.236;5.704;2024-01-11T21:40:15;2.10;;;0.80;;
51718;SDS011;37795;53.236;5.704;2024-01-11T21:42:44;2.27;;;0.90;;
51718;SDS011;37795;53.236;5.704;2024-01-11T21:52:09;1.20;;;0.90;;
51718;SDS011;37795;53.236;5.704;2024-01-11T21:54:35;2.33;;;1.15;;
51718;SDS011;37795;53.236;5.704;2024-01-11T21:57:00;2.30;;;1.05;;
51718;SDS011;37795;53.236;5.704;2024-01-11T21:59:26;1.42;;;0.80;;
51718;SDS011;37795;53.236;5.704;2024-01-11T22:01:52;1.40;;;0.80;;
51718;SDS011;37795;53.236;5.704;2024-01-11T22:04:18;1.70;;;1.00;;
51718;SDS011;37795;53.236;5.704;2024-01-11T22:06:44;1.80;;;1.00;;
51718;SDS011;37795;53.236;5.704;2024-01-11T22:09:09;1.63;;;1.00;;
51718;SDS011;37795;53.236;5.704;2024-01-11T22:11:35;1.70;;;0.80;;
51718;SDS011;37795;53.236;5.704;2024-01-11T22:14:01;2.53;;;1.25;;
51718;SDS011;37795;53.236;5.704;2024-01-11T22:16:27;1.52;;;0.90;;
51718;SDS011;37795;53.236;5.704;2024-01-11T22:18:55;1.80;;;1.00;;
51718;SDS011;37795;53.236;5.704;2024-01-11T22:21:22;2.25;;;1.10;;
51718;SDS011;37795;53.236;5.704;2024-01-11T22:23:49;3.47;;;1.05;;
51718;SDS011;37795;53.236;5.704;2024-01-11T22:26:22;2.13;;;1.10;;
51718;SDS011;37795;53.236;5.704;2024-01-11T22:28:48;3.60;;;1.03;;
51718;SDS011;37795;53.236;5.704;2024-01-11T22:31:14;3.77;;;1.20;;
51718;SDS011;37795;53.236;5.704;2024-01-11T22:33:40;3.20;;;1.00;;
51718;SDS011;37795;53.236;5.704;2024-01-11T22:36:07;2.58;;;1.10;;
51718;SDS011;37795;53.236;5.704;2024-01-11T22:38:34;3.10;;;1.10;;
51718;SDS011;37795;53.236;5.704;2024-01-11T22:41:00;2.73;;;1.10;;
51718;SDS011;37795;53.236;5.704;2024-01-11T22:43:25;1.98;;;1.00;;
51718;SDS011;37795;53.236;5.704;2024-01-11T22:45:52;2.17;;;0.90;;
51718;SDS011;37795;53.236;5.704;2024-01-11T22:48:18;2.30;;;1.00;;
51718;SDS011;37795;53.236;5.704;2024-01-11T22:50:43;4.43;;;1.60;;
51718;SDS011;37795;53.236;5.704;2024-01-11T22:53:09;3.65;;;1.13;;
51718;SDS011;37795;53.236;5.704;2024-01-11T22:55:35;3.20;;;1.10;;
51718;SDS011;37795;53.236;5.704;2024-01-11T22:58:01;2.90;;;1.10;;
51718;SDS011;37795;53.236;5.704;2024-01-11T23:00:26;2.73;;;0.90;;
51718;SDS011;37795;53.236;5.704;2024-01-11T23:02:52;2.43;;;1.27;;
51718;SDS011;37795;53.236;5.704;2024-01-11T23:05:18;4.38;;;0.90;;
51718;SDS011;37795;53.236;5.704;2024-01-11T23:07:44;2.30;;;0.90;;
51718;SDS011;37795;53.236;5.704;2024-01-11T23:10:10;1.90;;;1.30;;
51718;SDS011;37795;53.236;5.704;2024-01-11T23:12:42;2.05;;;1.10;;
51718;SDS011;37795;53.236;5.704;2024-01-11T23:15:11;2.78;;;1.00;;
51718;SDS011;37795;53.236;5.704;2024-01-11T23:17:37;2.05;;;0.90;;
51718;SDS011;37795;53.236;5.704;2024-01-11T23:20:03;2.40;;;1.07;;
51718;SDS011;37795;53.236;5.704;2024-01-11T23:22:30;1.30;;;0.90;;
51718;SDS011;37795;53.236;5.704;2024-01-11T23:24:56;2.70;;;1.00;;
51718;SDS011;37795;53.236;5.704;2024-01-11T23:27:21;1.53;;;0.90;;
51718;SDS011;37795;53.236;5.704;2024-01-11T23:29:47;2.38;;;0.85;;
51718;SDS011;37795;53.236;5.704;2024-01-11T23:32:12;1.87;;;0.93;;
51718;SDS011;37795;53.236;5.704;2024-01-11T23:34:38;2.90;;;1.00;;
51718;SDS011;37795;53.236;5.704;2024-01-11T23:37:04;2.42;;;1.00;;
51718;SDS011;37795;53.236;5.704;2024-01-11T23:39:30;1.55;;;1.00;;
51718;SDS011;37795;53.236;5.704;2024-01-11T23:41:55;1.90;;;1.00;;
51718;SDS011;37795;53.236;5.704;2024-01-11T23:44:21;2.73;;;1.33;;
51718;SDS011;37795;53.236;5.704;2024-01-11T23:46:47;1.53;;;0.80;;
51718;SDS011;37795;53.236;5.704;2024-01-11T23:49:13;2.43;;;0.80;;
51718;SDS011;37795;53.236;5.704;2024-01-11T23:51:38;2.30;;;1.00;;
51718;SDS011;37795;53.236;5.704;2024-01-11T23:54:04;2.10;;;1.13;;
51718;SDS011;37795;53.236;5.704;2024-01-11T23:56:30;2.42;;;1.00;;
51718;SDS011;37795;53.236;5.704;2024-01-11T23:58:56;1.95;;;0.93;;
